BRMA51 CYTR-CYTR

Flight info

Callsign BRMA51
Flight time 1h 42m
Altitude 3000
Route VFR
Aircraft C130/M-SDE2E3FGRY/H

Departure

Time 2026-05-07 20:11
Airport CFB Trenton (CYTR)

Arrival

Time 2026-05-07 21:54
Airport CFB Trenton (CYTR)
Time Latitude Longitude Altitude Speed Heading
2026-05-07 20:00 44.11027 -77.53798 275 ft 0 kts 161°
2026-05-07 20:04 44.11018 -77.53794 275 ft 4 kts 162°
2026-05-07 20:04 44.10997 -77.53745 274 ft 9 kts 45°
2026-05-07 20:04 44.11071 -77.53748 276 ft 9 kts 343°
2026-05-07 20:04 44.11134 -77.53774 277 ft 8 kts 346°
2026-05-07 20:05 44.11183 -77.53748 277 ft 8 kts 51°
2026-05-07 20:05 44.11220 -77.53683 277 ft 9 kts 50°
2026-05-07 20:05 44.11270 -77.53599 276 ft 13 kts 50°
2026-05-07 20:05 44.11342 -77.53477 276 ft 18 kts 51°
2026-05-07 20:06 44.11431 -77.53326 275 ft 21 kts 50°
2026-05-07 20:06 44.11526 -77.53165 273 ft 21 kts 50°
2026-05-07 20:06 44.11618 -77.53009 272 ft 20 kts 50°
2026-05-07 20:06 44.11709 -77.52852 271 ft 20 kts 51°
2026-05-07 20:07 44.11797 -77.52702 270 ft 19 kts 51°
2026-05-07 20:07 44.11881 -77.52560 271 ft 18 kts 48°
2026-05-07 20:07 44.11959 -77.52430 272 ft 16 kts 51°
2026-05-07 20:07 44.12029 -77.52307 273 ft 15 kts 51°
2026-05-07 20:08 44.12094 -77.52198 274 ft 14 kts 50°
2026-05-07 20:08 44.12153 -77.52098 275 ft 12 kts 50°
2026-05-07 20:08 44.12205 -77.52010 277 ft 11 kts 51°
2026-05-07 20:08 44.12254 -77.51928 278 ft 10 kts 51°
2026-05-07 20:09 44.12294 -77.51848 279 ft 9 kts 81°
2026-05-07 20:09 44.12290 -77.51756 279 ft 9 kts 94°
2026-05-07 20:09 44.12317 -77.51691 280 ft 8 kts 47°
2026-05-07 20:10 44.12405 -77.51635 281 ft 5 kts 332°
2026-05-07 20:10 44.12408 -77.51667 281 ft 2 kts 226°
2026-05-07 20:10 44.12403 -77.51675 281 ft 0 kts 229°
2026-05-07 20:10 44.12401 -77.51678 281 ft 8 kts 229°
2026-05-07 20:11 44.12194 -77.52024 277 ft 82 kts 230°
2026-05-07 20:11 44.11734 -77.52817 329 ft 120 kts 226°
2026-05-07 20:11 44.11196 -77.53791 559 ft 134 kts 232°
2026-05-07 20:11 44.10641 -77.54829 1006 ft 135 kts 233°
2026-05-07 20:12 44.10262 -77.56054 1304 ft 147 kts 269°
2026-05-07 20:12 44.10776 -77.57342 1524 ft 168 kts 314°
2026-05-07 20:12 44.11696 -77.58408 1798 ft 178 kts 318°
2026-05-07 20:12 44.12737 -77.59516 2005 ft 194 kts 319°
2026-05-07 20:13 44.13833 -77.60709 2206 ft 208 kts 318°
2026-05-07 20:13 44.15006 -77.61983 2445 ft 220 kts 319°
2026-05-07 20:13 44.16213 -77.63322 2655 ft 220 kts 319°
2026-05-07 20:13 44.17385 -77.64632 2690 ft 217 kts 319°
2026-05-07 20:14 44.18577 -77.65966 2693 ft 214 kts 319°
2026-05-07 20:14 44.19751 -77.67284 2699 ft 217 kts 319°
2026-05-07 20:14 44.21058 -77.68260 2685 ft 220 kts 344°
2026-05-07 20:14 44.22583 -77.68596 2698 ft 221 kts 348°
2026-05-07 20:15 44.24123 -77.68897 2692 ft 221 kts 348°
2026-05-07 20:15 44.25670 -77.69189 2686 ft 223 kts 349°
2026-05-07 20:15 44.27205 -77.69475 2686 ft 223 kts 348°
2026-05-07 20:15 44.28738 -77.69756 2683 ft 223 kts 349°
2026-05-07 20:16 44.30253 -77.70124 2680 ft 216 kts 339°
2026-05-07 20:16 44.31667 -77.70907 2688 ft 217 kts 334°
2026-05-07 20:16 44.33059 -77.71733 2690 ft 217 kts 333°
2026-05-07 20:16 44.34463 -77.72571 2687 ft 217 kts 334°
2026-05-07 20:17 44.35851 -77.73405 2681 ft 217 kts 333°
2026-05-07 20:17 44.37225 -77.74225 2679 ft 218 kts 334°
2026-05-07 20:17 44.38616 -77.75050 2681 ft 217 kts 334°
2026-05-07 20:17 44.40012 -77.75880 2679 ft 217 kts 334°
2026-05-07 20:18 44.41410 -77.76721 2680 ft 217 kts 334°
2026-05-07 20:18 44.42798 -77.77550 2674 ft 217 kts 334°
2026-05-07 20:18 44.44172 -77.78372 2673 ft 217 kts 334°
2026-05-07 20:18 44.45560 -77.79198 2668 ft 217 kts 334°
2026-05-07 20:19 44.46947 -77.80024 2672 ft 218 kts 334°
2026-05-07 20:19 44.48338 -77.80853 2670 ft 216 kts 333°
2026-05-07 20:19 44.49739 -77.81683 2668 ft 216 kts 333°
2026-05-07 20:19 44.51123 -77.82506 2665 ft 215 kts 333°
2026-05-07 20:20 44.52498 -77.83328 2665 ft 216 kts 334°
2026-05-07 20:20 44.53871 -77.84154 2666 ft 216 kts 334°
2026-05-07 20:20 44.55260 -77.84990 2659 ft 216 kts 334°
2026-05-07 20:20 44.56652 -77.85822 2659 ft 216 kts 334°
2026-05-07 20:21 44.58031 -77.86642 2652 ft 215 kts 334°
2026-05-07 20:21 44.59413 -77.87464 2654 ft 215 kts 334°
2026-05-07 20:21 44.60796 -77.88292 2646 ft 216 kts 334°
2026-05-07 20:21 44.62173 -77.89116 2645 ft 216 kts 334°
2026-05-07 20:22 44.63567 -77.89939 2638 ft 214 kts 334°
2026-05-07 20:22 44.64874 -77.90707 2618 ft 191 kts 333°
2026-05-07 20:22 44.65814 -77.91732 2614 ft 161 kts 295°
2026-05-07 20:22 44.65834 -77.93156 2677 ft 151 kts 249°
2026-05-07 20:23 44.65362 -77.94476 2651 ft 150 kts 247°
2026-05-07 20:23 44.64651 -77.95589 2622 ft 162 kts 206°
2026-05-07 20:23 44.63523 -77.95454 2650 ft 175 kts 153°
2026-05-07 20:23 44.62811 -77.94060 2652 ft 179 kts 98°
2026-05-07 20:24 44.63139 -77.92470 2656 ft 171 kts 41°
2026-05-07 20:24 44.64174 -77.91933 2653 ft 158 kts 345°
2026-05-07 20:24 44.64966 -77.92817 2659 ft 150 kts 290°
2026-05-07 20:24 44.64840 -77.94222 2652 ft 155 kts 238°
2026-05-07 20:25 44.63867 -77.94852 2652 ft 168 kts 181°
2026-05-07 20:25 44.62828 -77.94074 2652 ft 179 kts 128°
2026-05-07 20:25 44.62607 -77.92423 2657 ft 176 kts 71°
2026-05-07 20:25 44.63176 -77.90916 2669 ft 174 kts 52°
2026-05-07 20:26 44.63893 -77.89531 2655 ft 173 kts 49°
2026-05-07 20:26 44.64607 -77.88191 2645 ft 173 kts 48°
2026-05-07 20:26 44.65348 -77.86794 2672 ft 190 kts 48°
2026-05-07 20:26 44.66213 -77.85184 2670 ft 217 kts 49°
2026-05-07 20:27 44.67175 -77.83427 2670 ft 240 kts 49°
2026-05-07 20:27 44.68235 -77.81493 2678 ft 251 kts 49°
2026-05-07 20:27 44.69299 -77.79564 2665 ft 245 kts 49°
2026-05-07 20:27 44.70349 -77.77670 2655 ft 246 kts 49°
2026-05-07 20:28 44.71397 -77.75785 2645 ft 246 kts 49°
2026-05-07 20:28 44.72447 -77.73891 2647 ft 246 kts 49°
2026-05-07 20:28 44.73495 -77.72008 2650 ft 246 kts 49°
2026-05-07 20:28 44.74555 -77.70107 2644 ft 245 kts 48°
2026-05-07 20:29 44.75613 -77.68207 2646 ft 245 kts 48°
2026-05-07 20:29 44.76652 -77.66342 2653 ft 246 kts 48°
2026-05-07 20:29 44.77714 -77.64430 2643 ft 245 kts 48°
2026-05-07 20:29 44.78914 -77.62801 2619 ft 238 kts 21°
2026-05-07 20:30 44.80492 -77.62512 2649 ft 228 kts 346°
2026-05-07 20:30 44.81988 -77.63180 2649 ft 225 kts 334°
2026-05-07 20:30 44.83431 -77.64033 2641 ft 224 kts 333°
2026-05-07 20:30 44.84857 -77.64889 2644 ft 224 kts 333°
2026-05-07 20:31 44.86294 -77.65755 2643 ft 224 kts 333°
2026-05-07 20:31 44.87730 -77.66613 2643 ft 224 kts 333°
2026-05-07 20:31 44.89175 -77.67475 2640 ft 225 kts 334°
2026-05-07 20:31 44.90602 -77.68328 2635 ft 224 kts 333°
2026-05-07 20:32 44.91988 -77.69323 2624 ft 221 kts 315°
2026-05-07 20:32 44.92744 -77.71149 2659 ft 218 kts 290°
2026-05-07 20:32 44.93263 -77.73184 2641 ft 218 kts 289°
2026-05-07 20:32 44.93756 -77.75211 2635 ft 219 kts 288°
2026-05-07 20:33 44.94243 -77.77222 2638 ft 218 kts 289°
2026-05-07 20:33 44.94736 -77.79266 2636 ft 218 kts 288°
2026-05-07 20:33 44.95223 -77.81281 2639 ft 218 kts 289°
2026-05-07 20:33 44.95961 -77.83144 2632 ft 220 kts 308°
2026-05-07 20:34 44.96951 -77.84761 2646 ft 219 kts 309°
2026-05-07 20:34 44.97958 -77.86414 2637 ft 220 kts 309°
2026-05-07 20:34 44.99045 -77.87934 2629 ft 220 kts 321°
2026-05-07 20:34 45.00408 -77.88954 2640 ft 224 kts 333°
2026-05-07 20:35 45.01846 -77.89819 2636 ft 225 kts 333°
2026-05-07 20:35 45.03273 -77.90686 2632 ft 226 kts 333°
2026-05-07 20:35 45.04711 -77.91554 2619 ft 226 kts 334°
2026-05-07 20:35 45.06164 -77.92426 2618 ft 225 kts 334°
2026-05-07 20:36 45.07612 -77.93285 2619 ft 224 kts 334°
2026-05-07 20:36 45.09047 -77.94134 2613 ft 224 kts 334°
2026-05-07 20:36 45.10413 -77.95144 2665 ft 216 kts 314°
2026-05-07 20:36 45.11003 -77.97031 2517 ft 220 kts 271°
2026-05-07 20:37 45.10595 -77.99213 2068 ft 237 kts 254°
2026-05-07 20:37 45.10325 -78.01440 2034 ft 229 kts 280°
2026-05-07 20:37 45.11173 -78.03299 1899 ft 232 kts 320°
2026-05-07 20:37 45.12503 -78.04643 1769 ft 233 kts 323°
2026-05-07 20:38 45.13802 -78.06033 1608 ft 234 kts 315°
2026-05-07 20:38 45.14943 -78.07647 1528 ft 233 kts 315°
2026-05-07 20:38 45.15830 -78.09478 1573 ft 225 kts 282°
2026-05-07 20:38 45.15581 -78.11678 1369 ft 230 kts 252°
2026-05-07 20:39 45.15579 -78.13663 1468 ft 199 kts 300°
2026-05-07 20:39 45.16687 -78.14902 1440 ft 213 kts 334°
2026-05-07 20:39 45.18137 -78.15218 1475 ft 220 kts
2026-05-07 20:39 45.19539 -78.14264 1409 ft 226 kts 29°
2026-05-07 20:40 45.20844 -78.13023 1492 ft 226 kts 33°
2026-05-07 20:40 45.21991 -78.11501 1604 ft 230 kts 45°
2026-05-07 20:40 45.23075 -78.09804 1640 ft 230 kts 41°
2026-05-07 20:40 45.24372 -78.08611 1643 ft 222 kts 15°
2026-05-07 20:41 45.25875 -78.08540 1689 ft 213 kts 340°
2026-05-07 20:41 45.27069 -78.09676 1680 ft 207 kts 318°
2026-05-07 20:41 45.28455 -78.10310 1744 ft 220 kts 354°
2026-05-07 20:41 45.29961 -78.10432 1594 ft 216 kts 348°
2026-05-07 20:42 45.31363 -78.11069 1617 ft 213 kts 335°
2026-05-07 20:42 45.32788 -78.11659 1669 ft 215 kts 342°
2026-05-07 20:42 45.34091 -78.12594 1758 ft 210 kts 308°
2026-05-07 20:42 45.34894 -78.14347 1699 ft 211 kts 308°
2026-05-07 20:43 45.36004 -78.15681 1584 ft 212 kts 326°
2026-05-07 20:43 45.37260 -78.16794 1575 ft 210 kts 323°
2026-05-07 20:43 45.37992 -78.18507 1557 ft 210 kts 275°
2026-05-07 20:43 45.37841 -78.20577 1535 ft 210 kts 265°
2026-05-07 20:44 45.37947 -78.22617 1566 ft 207 kts 287°
2026-05-07 20:44 45.38048 -78.24627 1701 ft 210 kts 261°
2026-05-07 20:44 45.37592 -78.26615 1960 ft 213 kts 246°
2026-05-07 20:44 45.36620 -78.28313 2150 ft 228 kts 231°
2026-05-07 20:45 45.35803 -78.30229 2346 ft 232 kts 246°
2026-05-07 20:45 45.35017 -78.32285 2546 ft 239 kts 244°
2026-05-07 20:45 45.34232 -78.34330 2621 ft 236 kts 244°
2026-05-07 20:45 45.33450 -78.36360 2634 ft 235 kts 244°
2026-05-07 20:46 45.32657 -78.38416 2634 ft 235 kts 244°
2026-05-07 20:46 45.31877 -78.40445 2620 ft 235 kts 244°
2026-05-07 20:46 45.31095 -78.42466 2619 ft 234 kts 244°
2026-05-07 20:46 45.30305 -78.44502 2617 ft 235 kts 244°
2026-05-07 20:47 45.29507 -78.46549 2620 ft 235 kts 244°
2026-05-07 20:47 45.28715 -78.48580 2624 ft 234 kts 244°
2026-05-07 20:47 45.27934 -78.50603 2623 ft 233 kts 245°
2026-05-07 20:47 45.27150 -78.52627 2637 ft 234 kts 244°
2026-05-07 20:48 45.26374 -78.54644 2635 ft 234 kts 244°
2026-05-07 20:48 45.25594 -78.56679 2633 ft 234 kts 244°
2026-05-07 20:48 45.24818 -78.58699 2632 ft 233 kts 244°
2026-05-07 20:48 45.24038 -78.60725 2631 ft 234 kts 244°
2026-05-07 20:49 45.23259 -78.62756 2631 ft 234 kts 244°
2026-05-07 20:49 45.22481 -78.64779 2632 ft 233 kts 245°
2026-05-07 20:49 45.21701 -78.66797 2629 ft 235 kts 244°
2026-05-07 20:49 45.20916 -78.68825 2632 ft 234 kts 244°
2026-05-07 20:50 45.20135 -78.70831 2633 ft 233 kts 244°
2026-05-07 20:50 45.19346 -78.72858 2628 ft 235 kts 244°
2026-05-07 20:50 45.18565 -78.74867 2632 ft 235 kts 244°
2026-05-07 20:50 45.17779 -78.76891 2633 ft 234 kts 244°
2026-05-07 20:51 45.16987 -78.78921 2639 ft 235 kts 244°
2026-05-07 20:51 45.16203 -78.80943 2648 ft 235 kts 244°
2026-05-07 20:51 45.15420 -78.82965 2646 ft 235 kts 244°
2026-05-07 20:51 45.14631 -78.85008 2645 ft 234 kts 244°
2026-05-07 20:52 45.13861 -78.87013 2638 ft 234 kts 244°
2026-05-07 20:52 45.13092 -78.89038 2642 ft 234 kts 244°
2026-05-07 20:52 45.12323 -78.91056 2652 ft 233 kts 244°
2026-05-07 20:52 45.11549 -78.93080 2645 ft 234 kts 244°
2026-05-07 20:53 45.10775 -78.95102 2646 ft 233 kts 244°
2026-05-07 20:53 45.10000 -78.97115 2649 ft 233 kts 244°
2026-05-07 20:53 45.09222 -78.99134 2650 ft 233 kts 244°
2026-05-07 20:53 45.08440 -79.01146 2655 ft 233 kts 244°
2026-05-07 20:54 45.07658 -79.03149 2656 ft 231 kts 244°
2026-05-07 20:54 45.06902 -79.05087 2640 ft 211 kts 245°
2026-05-07 20:54 45.06228 -79.06786 2664 ft 192 kts 245°
2026-05-07 20:54 45.05579 -79.08426 2667 ft 195 kts 244°
2026-05-07 20:55 45.04935 -79.10094 2674 ft 197 kts 244°
2026-05-07 20:55 45.04296 -79.11746 2695 ft 193 kts 244°
2026-05-07 20:55 45.03688 -79.13454 2683 ft 191 kts 249°
2026-05-07 20:55 45.03248 -79.15216 2700 ft 190 kts 258°
2026-05-07 20:56 45.02967 -79.17045 2703 ft 192 kts 260°
2026-05-07 20:56 45.02660 -79.18881 2703 ft 191 kts 258°
2026-05-07 20:56 45.02405 -79.20596 2695 ft 162 kts 266°
2026-05-07 20:56 45.02445 -79.22026 2696 ft 130 kts 279°
2026-05-07 20:57 45.02532 -79.23299 2749 ft 129 kts 275°
2026-05-07 20:57 45.02637 -79.24560 2610 ft 131 kts 278°
2026-05-07 20:57 45.02581 -79.25875 2371 ft 142 kts 258°
2026-05-07 20:57 45.02224 -79.27110 2040 ft 133 kts 252°
2026-05-07 20:58 45.01826 -79.28326 1845 ft 139 kts 253°
2026-05-07 20:58 45.01402 -79.29557 1716 ft 133 kts 245°
2026-05-07 20:58 45.00809 -79.30605 1534 ft 141 kts 226°
2026-05-07 20:58 44.99922 -79.31162 1482 ft 138 kts 185°
2026-05-07 20:59 44.98885 -79.30894 1397 ft 160 kts 174°
2026-05-07 20:59 44.97918 -79.30410 1335 ft 150 kts 142°
2026-05-07 20:59 44.97943 -79.29045 1316 ft 156 kts 37°
2026-05-07 20:59 44.98822 -79.29141 1289 ft 130 kts 308°
2026-05-07 21:00 44.98864 -79.30308 1227 ft 128 kts 242°
2026-05-07 21:00 44.98004 -79.30772 1005 ft 148 kts 176°
2026-05-07 21:00 44.96989 -79.30508 1041 ft 150 kts 176°
2026-05-07 21:00 44.95982 -79.30165 1331 ft 151 kts 152°
2026-05-07 21:01 44.95686 -79.28893 1559 ft 146 kts 56°
2026-05-07 21:01 44.96549 -79.28530 1595 ft 138 kts 335°
2026-05-07 21:01 44.97478 -79.28834 1610 ft 140 kts 345°
2026-05-07 21:01 44.98476 -79.29138 1538 ft 145 kts 343°
2026-05-07 21:02 44.99323 -79.29593 1481 ft 126 kts 304°
2026-05-07 21:02 44.99174 -79.30677 1426 ft 136 kts 226°
2026-05-07 21:02 44.98215 -79.30821 968 ft 145 kts 173°
2026-05-07 21:02 44.97273 -79.30575 947 ft 143 kts 173°
2026-05-07 21:03 44.96262 -79.30324 1254 ft 147 kts 177°
2026-05-07 21:03 44.95254 -79.30094 1581 ft 154 kts 177°
2026-05-07 21:03 44.94163 -79.29692 1818 ft 170 kts 169°
2026-05-07 21:03 44.92972 -79.29247 2093 ft 184 kts 169°
2026-05-07 21:04 44.91719 -79.28792 2386 ft 194 kts 169°
2026-05-07 21:04 44.90353 -79.28316 2654 ft 208 kts 169°
2026-05-07 21:04 44.88908 -79.27788 2945 ft 219 kts 170°
2026-05-07 21:04 44.87358 -79.27235 3031 ft 239 kts 170°
2026-05-07 21:05 44.85671 -79.26636 3032 ft 258 kts 170°
2026-05-07 21:05 44.83898 -79.26019 3032 ft 257 kts 169°
2026-05-07 21:05 44.82162 -79.25412 3020 ft 254 kts 169°
2026-05-07 21:05 44.80427 -79.24812 3016 ft 257 kts 170°
2026-05-07 21:06 44.78692 -79.24216 3017 ft 256 kts 170°
2026-05-07 21:06 44.76953 -79.23617 3012 ft 256 kts 170°
2026-05-07 21:06 44.75229 -79.23013 3013 ft 256 kts 169°
2026-05-07 21:06 44.73488 -79.22405 3018 ft 257 kts 170°
2026-05-07 21:07 44.71750 -79.21806 3014 ft 256 kts 170°
2026-05-07 21:07 44.70007 -79.21209 3016 ft 257 kts 169°
2026-05-07 21:07 44.68263 -79.20616 3008 ft 258 kts 169°
2026-05-07 21:07 44.66524 -79.20033 3006 ft 259 kts 169°
2026-05-07 21:08 44.64762 -79.19445 3006 ft 259 kts 169°
2026-05-07 21:08 44.63009 -79.18864 3004 ft 259 kts 169°
2026-05-07 21:08 44.61260 -79.18491 2979 ft 254 kts 189°
2026-05-07 21:08 44.59549 -79.19065 3011 ft 251 kts 199°
2026-05-07 21:09 44.57875 -79.19721 2999 ft 251 kts 199°
2026-05-07 21:09 44.56191 -79.20399 2980 ft 250 kts 200°
2026-05-07 21:09 44.54522 -79.21070 2983 ft 250 kts 200°
2026-05-07 21:09 44.52861 -79.21738 2983 ft 249 kts 200°
2026-05-07 21:10 44.51189 -79.22414 2987 ft 250 kts 200°
2026-05-07 21:10 44.49514 -79.23099 2987 ft 251 kts 200°
2026-05-07 21:10 44.47846 -79.23778 2988 ft 251 kts 200°
2026-05-07 21:10 44.46148 -79.24466 2992 ft 251 kts 200°
2026-05-07 21:11 44.44483 -79.25134 2988 ft 251 kts 200°
2026-05-07 21:11 44.42801 -79.25805 2986 ft 252 kts 200°
2026-05-07 21:11 44.39437 -79.27145 2987 ft 252 kts 200°
2026-05-07 21:12 44.37753 -79.27816 2986 ft 252 kts 200°
2026-05-07 21:12 44.36069 -79.28491 2991 ft 251 kts 200°
2026-05-07 21:12 44.34369 -79.29181 2991 ft 251 kts 200°
2026-05-07 21:12 44.32693 -79.29863 2994 ft 251 kts 200°
2026-05-07 21:13 44.31053 -79.30618 2994 ft 251 kts 203°
2026-05-07 21:13 44.29400 -79.31431 2991 ft 251 kts 203°
2026-05-07 21:13 44.27763 -79.32238 2994 ft 250 kts 203°
2026-05-07 21:13 44.26105 -79.33059 2993 ft 250 kts 203°
2026-05-07 21:14 44.24474 -79.33869 2993 ft 251 kts 203°
2026-05-07 21:14 44.22820 -79.34681 2992 ft 251 kts 203°
2026-05-07 21:14 44.21149 -79.35499 2991 ft 251 kts 203°
2026-05-07 21:14 44.19500 -79.36305 2989 ft 251 kts 203°
2026-05-07 21:15 44.17905 -79.37225 2991 ft 249 kts 208°
2026-05-07 21:15 44.16316 -79.38216 2988 ft 249 kts 208°
2026-05-07 21:15 44.14716 -79.39213 2981 ft 250 kts 208°
2026-05-07 21:15 44.13155 -79.40185 2969 ft 239 kts 208°
2026-05-07 21:16 44.11716 -79.41077 2975 ft 215 kts 208°
2026-05-07 21:16 44.10325 -79.41936 2970 ft 219 kts 208°
2026-05-07 21:16 44.08940 -79.42798 2972 ft 219 kts 208°
2026-05-07 21:16 44.07540 -79.43673 2969 ft 219 kts 208°
2026-05-07 21:17 44.06163 -79.44528 2971 ft 218 kts 208°
2026-05-07 21:17 44.04755 -79.45409 2971 ft 220 kts 208°
2026-05-07 21:17 44.03372 -79.46272 2968 ft 220 kts 208°
2026-05-07 21:17 44.01961 -79.47152 2969 ft 220 kts 208°
2026-05-07 21:18 44.00565 -79.48017 2968 ft 221 kts 208°
2026-05-07 21:18 43.99065 -79.48543 2970 ft 226 kts 187°
2026-05-07 21:18 43.97493 -79.48654 2980 ft 225 kts 187°
2026-05-07 21:18 43.95930 -79.48750 2982 ft 224 kts 186°
2026-05-07 21:19 43.94372 -79.48846 2985 ft 224 kts 186°
2026-05-07 21:19 43.92827 -79.48998 2990 ft 224 kts 189°
2026-05-07 21:19 43.91271 -79.49208 2986 ft 223 kts 189°
2026-05-07 21:19 43.89788 -79.49352 2983 ft 197 kts 194°
2026-05-07 21:20 43.88477 -79.49699 2992 ft 191 kts 195°
2026-05-07 21:20 43.87202 -79.50030 2963 ft 180 kts 195°
2026-05-07 21:20 43.86019 -79.50326 2989 ft 171 kts 195°
2026-05-07 21:20 43.84848 -79.50622 3009 ft 171 kts 195°
2026-05-07 21:21 43.83681 -79.50910 2985 ft 172 kts 195°
2026-05-07 21:21 43.82496 -79.51212 2995 ft 172 kts 196°
2026-05-07 21:21 43.81331 -79.51504 2996 ft 171 kts 195°
2026-05-07 21:21 43.80150 -79.51801 2999 ft 171 kts 195°
2026-05-07 21:22 43.78971 -79.52100 3000 ft 170 kts 196°
2026-05-07 21:22 43.77885 -79.52647 3002 ft 167 kts 210°
2026-05-07 21:22 43.76836 -79.53316 2996 ft 166 kts 211°
2026-05-07 21:22 43.75836 -79.54120 2972 ft 164 kts 224°
2026-05-07 21:23 43.74990 -79.55199 2797 ft 170 kts 231°
2026-05-07 21:23 43.74218 -79.56354 2415 ft 160 kts 234°
2026-05-07 21:23 43.73515 -79.57468 2091 ft 155 kts 233°
2026-05-07 21:23 43.72799 -79.58573 1803 ft 155 kts 234°
2026-05-07 21:24 43.72059 -79.59670 1419 ft 150 kts 231°
2026-05-07 21:24 43.71376 -79.60613 1179 ft 134 kts 231°
2026-05-07 21:24 43.70735 -79.61556 1009 ft 134 kts 233°
2026-05-07 21:24 43.70105 -79.62509 809 ft 135 kts 231°
2026-05-07 21:25 43.69451 -79.63445 603 ft 135 kts 232°
2026-05-07 21:25 43.68821 -79.64370 543 ft 124 kts 227°
2026-05-07 21:25 43.68156 -79.65324 691 ft 144 kts 228°
2026-05-07 21:25 43.67459 -79.66348 1082 ft 149 kts 230°
2026-05-07 21:26 43.66979 -79.67547 1498 ft 145 kts 270°
2026-05-07 21:26 43.67473 -79.68755 1650 ft 160 kts 327°
2026-05-07 21:26 43.68595 -79.68759 1813 ft 181 kts 18°
2026-05-07 21:26 43.69679 -79.67739 1869 ft 191 kts 34°
2026-05-07 21:27 43.70674 -79.66515 1977 ft 194 kts 39°
2026-05-07 21:27 43.71592 -79.65133 2025 ft 200 kts 44°
2026-05-07 21:27 43.72481 -79.63662 2136 ft 201 kts 46°
2026-05-07 21:27 43.73368 -79.62097 2107 ft 209 kts 53°
2026-05-07 21:28 43.73753 -79.60142 2086 ft 223 kts 79°
2026-05-07 21:28 43.73969 -79.57979 2102 ft 228 kts 79°
2026-05-07 21:28 43.74183 -79.55795 2103 ft 226 kts 79°
2026-05-07 21:28 43.74394 -79.53621 2092 ft 228 kts 79°
2026-05-07 21:29 43.74604 -79.51472 2068 ft 226 kts 80°
2026-05-07 21:29 43.74817 -79.49294 2041 ft 230 kts 79°
2026-05-07 21:29 43.75027 -79.47148 2019 ft 228 kts 79°
2026-05-07 21:29 43.75242 -79.45000 2007 ft 226 kts 79°
2026-05-07 21:30 43.75446 -79.42830 2007 ft 227 kts 79°
2026-05-07 21:30 43.75653 -79.40663 2007 ft 227 kts 79°
2026-05-07 21:30 43.75866 -79.38500 2006 ft 225 kts 79°
2026-05-07 21:30 43.76077 -79.36365 2003 ft 226 kts 79°
2026-05-07 21:31 43.76299 -79.34168 2009 ft 229 kts 80°
2026-05-07 21:31 43.76513 -79.32022 2004 ft 228 kts 78°
2026-05-07 21:31 43.76931 -79.29933 2008 ft 224 kts 70°
2026-05-07 21:31 43.77385 -79.27873 2069 ft 222 kts 70°
2026-05-07 21:32 43.77841 -79.25841 2196 ft 225 kts 70°
2026-05-07 21:32 43.78318 -79.23753 2334 ft 234 kts 70°
2026-05-07 21:32 43.78823 -79.21541 2477 ft 248 kts 70°
2026-05-07 21:32 43.79355 -79.19233 2618 ft 258 kts 70°
2026-05-07 21:33 43.79912 -79.16824 2765 ft 266 kts 70°
2026-05-07 21:33 43.80484 -79.14368 2911 ft 270 kts 70°
2026-05-07 21:33 43.81053 -79.11923 3004 ft 268 kts 70°
2026-05-07 21:33 43.81568 -79.09425 3006 ft 267 kts 73°
2026-05-07 21:34 43.82039 -79.06954 3005 ft 267 kts 73°
2026-05-07 21:34 43.82512 -79.04456 3000 ft 267 kts 73°
2026-05-07 21:34 43.82986 -79.01977 3002 ft 267 kts 73°
2026-05-07 21:34 43.83461 -78.99501 2995 ft 266 kts 73°
2026-05-07 21:35 43.83936 -78.97053 2993 ft 266 kts 72°
2026-05-07 21:35 43.84412 -78.94593 2993 ft 265 kts 72°
2026-05-07 21:35 43.84894 -78.92100 2991 ft 266 kts 72°
2026-05-07 21:35 43.85370 -78.89634 2995 ft 266 kts 72°
2026-05-07 21:36 43.85847 -78.87178 2992 ft 265 kts 72°
2026-05-07 21:36 43.86330 -78.84697 2995 ft 266 kts 72°
2026-05-07 21:36 43.86805 -78.82240 2998 ft 265 kts 72°
2026-05-07 21:36 43.87284 -78.79783 3004 ft 266 kts 72°
2026-05-07 21:37 43.87769 -78.77293 3003 ft 266 kts 72°
2026-05-07 21:37 43.88252 -78.74816 3002 ft 266 kts 72°
2026-05-07 21:37 43.88730 -78.72375 3002 ft 266 kts 72°
2026-05-07 21:37 43.89217 -78.69901 2996 ft 265 kts 72°
2026-05-07 21:38 43.89710 -78.67447 2879 ft 266 kts 72°
2026-05-07 21:38 43.90156 -78.64940 2747 ft 267 kts 75°
2026-05-07 21:38 43.90560 -78.62463 2630 ft 264 kts 75°
2026-05-07 21:38 43.90961 -78.59980 2515 ft 264 kts 75°
2026-05-07 21:39 43.91371 -78.57478 2497 ft 264 kts 75°
2026-05-07 21:39 43.91770 -78.55024 2494 ft 264 kts 75°
2026-05-07 21:39 43.92171 -78.52528 2275 ft 264 kts 75°
2026-05-07 21:39 43.92566 -78.50073 2035 ft 262 kts 75°
2026-05-07 21:40 43.92923 -78.47578 1987 ft 265 kts 83°
2026-05-07 21:40 43.92692 -78.45058 2011 ft 266 kts 98°
2026-05-07 21:40 43.92361 -78.42519 1988 ft 267 kts 99°
2026-05-07 21:40 43.92031 -78.40033 1999 ft 266 kts 99°
2026-05-07 21:41 43.91697 -78.37501 1998 ft 266 kts 99°
2026-05-07 21:41 43.91402 -78.35006 1989 ft 264 kts 91°
2026-05-07 21:41 43.91700 -78.32510 2007 ft 264 kts 75°
2026-05-07 21:41 43.92133 -78.30030 1994 ft 263 kts 74°
2026-05-07 21:42 43.92572 -78.27583 1995 ft 263 kts 75°
2026-05-07 21:42 43.93019 -78.25114 1994 ft 262 kts 74°
2026-05-07 21:42 43.93464 -78.22650 1995 ft 264 kts 74°
2026-05-07 21:42 43.93903 -78.20203 1994 ft 263 kts 74°
2026-05-07 21:43 43.94347 -78.17726 1997 ft 263 kts 74°
2026-05-07 21:43 43.94789 -78.15290 1992 ft 263 kts 74°
2026-05-07 21:43 43.95244 -78.12804 1994 ft 265 kts 74°
2026-05-07 21:43 43.95696 -78.10373 1994 ft 263 kts 74°
2026-05-07 21:44 43.96157 -78.07896 1993 ft 265 kts 74°
2026-05-07 21:44 43.96612 -78.05441 1992 ft 264 kts 74°
2026-05-07 21:44 43.97072 -78.02960 1993 ft 263 kts 74°
2026-05-07 21:44 43.97497 -78.00507 1993 ft 263 kts 77°
2026-05-07 21:45 43.97867 -77.98023 1991 ft 262 kts 77°
2026-05-07 21:45 43.98240 -77.95528 1994 ft 264 kts 77°
2026-05-07 21:45 43.98616 -77.93034 1996 ft 266 kts 77°
2026-05-07 21:45 43.98987 -77.90550 1998 ft 265 kts 77°
2026-05-07 21:46 43.99364 -77.88033 1997 ft 266 kts 77°
2026-05-07 21:46 43.99733 -77.85538 1997 ft 266 kts 77°
2026-05-07 21:46 44.00116 -77.83008 1994 ft 266 kts 77°
2026-05-07 21:46 44.00729 -77.80637 1972 ft 263 kts 51°
2026-05-07 21:47 44.02141 -77.79028 2012 ft 260 kts 29°
2026-05-07 21:47 44.03667 -77.77696 1994 ft 259 kts 29°
2026-05-07 21:47 44.05222 -77.76375 2006 ft 261 kts 29°
2026-05-07 21:47 44.06766 -77.75066 1998 ft 258 kts 29°
2026-05-07 21:48 44.08293 -77.73758 2000 ft 261 kts 29°
2026-05-07 21:48 44.09855 -77.72427 2000 ft 261 kts 29°
2026-05-07 21:48 44.11402 -77.71115 2003 ft 260 kts 28°
2026-05-07 21:48 44.12948 -77.69790 2012 ft 259 kts 28°
2026-05-07 21:49 44.14459 -77.68494 1997 ft 244 kts 28°
2026-05-07 21:49 44.15833 -77.67301 1981 ft 217 kts 29°
2026-05-07 21:49 44.16717 -77.65816 1977 ft 196 kts 73°
2026-05-07 21:49 44.16547 -77.63985 1977 ft 183 kts 120°
2026-05-07 21:50 44.15939 -77.62542 2011 ft 173 kts 123°
2026-05-07 21:50 44.15300 -77.61062 1908 ft 188 kts 123°
2026-05-07 21:50 44.14639 -77.59552 1638 ft 176 kts 123°
2026-05-07 21:50 44.13997 -77.58179 1380 ft 165 kts 127°
2026-05-07 21:51 44.13402 -77.56905 1203 ft 152 kts 126°
2026-05-07 21:51 44.12835 -77.55705 1016 ft 145 kts 129°
2026-05-07 21:51 44.12192 -77.54542 869 ft 145 kts 134°
2026-05-07 21:51 44.11571 -77.53408 725 ft 144 kts 131°
2026-05-07 21:52 44.11019 -77.52232 755 ft 144 kts 107°
2026-05-07 21:52 44.11132 -77.50774 779 ft 154 kts 61°
2026-05-07 21:52 44.11705 -77.49520 693 ft 157 kts 54°
2026-05-07 21:52 44.12313 -77.48311 760 ft 155 kts 53°
2026-05-07 21:53 44.13145 -77.47665 893 ft 136 kts 349°
2026-05-07 21:53 44.13800 -77.48441 940 ft 132 kts 279°
2026-05-07 21:53 44.13629 -77.49586 730 ft 124 kts 236°
2026-05-07 21:53 44.13071 -77.50519 503 ft 127 kts 232°
2026-05-07 21:54 44.12526 -77.51466 327 ft 123 kts 234°
2026-05-07 21:54 44.12016 -77.52338 273 ft 103 kts 230°
2026-05-07 21:54 44.11750 -77.52786 271 ft 38 kts 229°
2026-05-07 21:54 44.11598 -77.53037 272 ft 28 kts 231°
2026-05-07 21:55 44.11491 -77.53223 274 ft 21 kts 231°
2026-05-07 21:55 44.11413 -77.53356 275 ft 14 kts 232°
2026-05-07 21:55 44.11358 -77.53450 276 ft 10 kts 229°
2026-05-07 21:55 44.11315 -77.53519 276 ft 9 kts 230°
2026-05-07 21:56 44.11263 -77.53612 277 ft 14 kts 231°
2026-05-07 21:56 44.11195 -77.53725 277 ft 14 kts 230°
2026-05-07 21:56 44.11121 -77.53767 277 ft 12 kts 165°
2026-05-07 21:56 44.11041 -77.53736 275 ft 11 kts 163°
2026-05-07 21:57 44.10987 -77.53773 274 ft 5 kts 261°
2026-05-07 21:57 44.10997 -77.53819 275 ft 8 kts 290°
2026-05-07 21:57 44.10999 -77.53857 275 ft 6 kts 254°
2026-05-07 21:57 44.10998 -77.53861 275 ft 0 kts 254°